createdAt,value
2022-11-25T00:00:24.849Z,24.2
2022-11-25T00:01:26.770Z,23.5
2022-11-25T00:02:29.114Z,24.1
2022-11-25T00:03:31.807Z,23.6
2022-11-25T00:04:34.893Z,23.9
2022-11-25T00:05:38.856Z,24.2
2022-11-25T00:06:41.337Z,23.8
2022-11-25T00:07:43.549Z,23.7
2022-11-25T00:08:46.188Z,23.6
2022-11-25T00:09:48.415Z,24.1
2022-11-25T00:10:50.913Z,23.6
2022-11-25T00:11:53.129Z,23.4
2022-11-25T00:12:55.674Z,23.8
2022-11-25T00:13:57.873Z,24
2022-11-25T00:15:00.354Z,24.2
2022-11-25T00:16:02.918Z,24.1
2022-11-25T00:17:05.778Z,23.8
2022-11-25T00:18:08.718Z,24.2
2022-11-25T00:19:11.192Z,23.6
2022-11-25T00:20:13.670Z,24.2
2022-11-25T00:21:16.138Z,23.7
2022-11-25T00:22:18.617Z,23.9
2022-11-25T00:23:21.086Z,23.7
2022-11-25T00:24:23.571Z,23.7
2022-11-25T00:25:25.784Z,24.3
2022-11-25T00:26:27.979Z,24.5
2022-11-25T00:27:30.184Z,23.6
2022-11-25T00:28:32.733Z,24.1
2022-11-25T00:29:35.208Z,23.8
2022-11-25T00:30:37.142Z,24.4
2022-11-25T00:31:39.671Z,24.3
2022-11-25T00:32:42.224Z,24.5
2022-11-25T00:33:44.747Z,24.1
2022-11-25T00:34:46.929Z,24.1
2022-11-25T00:35:49.166Z,24.1
2022-11-25T00:36:51.653Z,24
2022-11-25T00:37:54.143Z,23.8
2022-11-25T00:38:56.359Z,24.5
2022-11-25T00:39:58.557Z,24.1
2022-11-25T00:41:00.756Z,24.3
2022-11-25T00:42:03.243Z,24.3
2022-11-25T00:43:05.458Z,24.4
2022-11-25T00:44:07.879Z,23.9
2022-11-25T00:45:10.084Z,24.5
2022-11-25T00:46:12.652Z,24
2022-11-25T00:47:15.584Z,24.3
2022-11-25T00:48:17.789Z,24.6
2022-11-25T00:49:20.062Z,24.3
2022-11-25T00:50:22.535Z,24.6
2022-11-25T00:51:25.016Z,24.2
2022-11-25T00:52:26.949Z,24.1
2022-11-25T00:53:29.148Z,24.1
2022-11-25T00:54:31.623Z,24.4
2022-11-25T00:55:34.788Z,24
2022-11-25T00:56:36.994Z,24.1
2022-11-25T00:57:39.464Z,24
2022-11-25T00:58:41.374Z,24.2
2022-11-25T00:59:43.927Z,23.9
2022-11-25T01:00:46.426Z,24.3
2022-11-25T01:01:48.897Z,24.2
2022-11-25T01:02:51.732Z,24.4
2022-11-25T01:03:54.213Z,24.4
2022-11-25T01:04:56.454Z,24
2022-11-25T01:05:58.929Z,24.1
2022-11-25T01:07:01.164Z,24.2
2022-11-25T01:08:03.642Z,24.5
2022-11-25T01:09:05.885Z,24.3
2022-11-25T01:10:08.363Z,24.4
2022-11-25T01:11:10.559Z,24.5
2022-11-25T01:12:13.039Z,24.4
2022-11-25T01:13:16.269Z,24.3
2022-11-25T01:14:18.745Z,24.2
2022-11-25T01:15:21.013Z,24.3
2022-11-25T01:16:23.032Z,24.3
2022-11-25T01:17:25.916Z,24.6
2022-11-25T01:18:28.138Z,24.4
2022-11-25T01:19:30.626Z,24.2
2022-11-25T01:20:33.144Z,24.3
2022-11-25T01:21:35.623Z,24.4
2022-11-25T01:22:37.831Z,24.2
2022-11-25T01:23:40.038Z,24.4
2022-11-25T01:24:42.232Z,24.3
2022-11-25T01:25:44.430Z,24.1
2022-11-25T01:26:46.909Z,24.3
2022-11-25T01:27:49.091Z,24.4
2022-11-25T01:28:51.310Z,24.5
2022-11-25T01:29:53.796Z,24.8
2022-11-25T01:30:56.375Z,24.4
2022-11-25T01:31:58.328Z,24.5
2022-11-25T01:33:01.279Z,24.3
2022-11-25T01:34:03.759Z,24.4
2022-11-25T01:35:06.236Z,24.3
2022-11-25T01:36:08.753Z,24.5
2022-11-25T01:37:11.225Z,24.7
2022-11-25T01:38:13.707Z,24.4
2022-11-25T01:39:15.922Z,24.4
2022-11-25T01:40:18.395Z,24.4
2022-11-25T01:41:20.875Z,24.4
2022-11-25T01:42:23.354Z,24.3
2022-11-25T01:43:25.830Z,24.4
2022-11-25T01:44:28.334Z,24.5
2022-11-25T01:45:30.838Z,24
2022-11-25T01:46:33.323Z,24.1
2022-11-25T01:47:35.533Z,24.5
2022-11-25T01:48:38.008Z,24.6
2022-11-25T01:49:39.949Z,24.6
2022-11-25T01:50:42.425Z,24.3
2022-11-25T01:51:44.950Z,24.4
2022-11-25T01:52:47.421Z,24.5
2022-11-25T01:53:49.612Z,24.4
2022-11-25T01:54:52.089Z,24.6
2022-11-25T01:55:54.568Z,24.5
2022-11-25T01:56:57.080Z,24.4
2022-11-25T01:57:59.558Z,24.4
2022-11-25T01:59:01.756Z,24.5
2022-11-25T02:00:03.966Z,24.5
2022-11-25T02:01:06.325Z,24.3
2022-11-25T02:02:08.993Z,24.5
2022-11-25T02:03:11.644Z,24.4
2022-11-25T02:04:14.119Z,24.3
2022-11-25T02:05:16.596Z,24.3
2022-11-25T02:06:18.790Z,24.1
2022-11-25T02:07:21.395Z,24.6
2022-11-25T02:08:24.145Z,24.5
2022-11-25T02:09:26.742Z,24
2022-11-25T02:10:29.213Z,25
2022-11-25T02:11:31.422Z,24.5
2022-11-25T02:12:33.619Z,24.3
2022-11-25T02:13:36.107Z,24.4
2022-11-25T02:14:38.706Z,24.2
2022-11-25T02:15:41.257Z,24.7
2022-11-25T02:16:43.785Z,24.5
2022-11-25T02:17:46.526Z,24.5
2022-11-25T02:18:49.136Z,24.3
2022-11-25T02:19:51.339Z,24.6
2022-11-25T02:20:53.809Z,24.8
2022-11-25T02:21:56.284Z,24.8
2022-11-25T02:22:58.801Z,24.3
2022-11-25T02:24:00.993Z,24.5
2022-11-25T02:25:03.474Z,24.4
2022-11-25T02:26:05.967Z,24.6
2022-11-25T02:27:08.442Z,24.5
2022-11-25T02:28:10.910Z,24.6
2022-11-25T02:29:13.403Z,24.3
2022-11-25T02:30:15.888Z,24.7
2022-11-25T02:31:18.379Z,24.3
2022-11-25T02:32:20.918Z,24.3
2022-11-25T02:33:23.476Z,24.6
2022-11-25T02:34:25.955Z,24.4
2022-11-25T02:35:28.416Z,24.3
2022-11-25T02:36:30.933Z,24.4
2022-11-25T02:37:32.866Z,24.4
2022-11-25T02:38:35.386Z,24.7
2022-11-25T02:39:37.575Z,24.4
2022-11-25T02:40:40.073Z,24.5
2022-11-25T02:41:41.979Z,24.6
2022-11-25T02:42:44.461Z,24.5
2022-11-25T02:43:46.646Z,24.5
2022-11-25T02:44:48.860Z,24.4
2022-11-25T02:45:51.427Z,24.5
2022-11-25T02:46:54.362Z,24.6
2022-11-25T02:47:56.564Z,24.8
2022-11-25T02:49:14.520Z,24.8
2022-11-25T02:50:04.094Z,24.7
2022-11-25T02:51:06.279Z,24.8
2022-11-25T02:52:08.764Z,24.4
2022-11-25T02:53:10.700Z,24.2
2022-11-25T02:54:13.230Z,24.5
2022-11-25T02:55:15.421Z,24.6
2022-11-25T02:56:17.917Z,24.6
2022-11-25T02:57:20.407Z,24.3
2022-11-25T02:58:22.893Z,24.5
2022-11-25T02:59:25.359Z,24.8
2022-11-25T03:00:27.839Z,24.4
2022-11-25T03:01:30.099Z,24.6
2022-11-25T03:02:32.856Z,24.6
2022-11-25T03:03:35.509Z,24.6
2022-11-25T03:04:38.260Z,24.4
2022-11-25T03:05:41.000Z,24.6
2022-11-25T03:06:43.211Z,24.5
2022-11-25T03:07:45.452Z,24.6
2022-11-25T03:08:48.333Z,24.4
2022-11-25T03:09:50.553Z,24.5
2022-11-25T03:10:52.753Z,24.6
2022-11-25T03:11:55.224Z,24.4
2022-11-25T03:12:57.441Z,24.5
2022-11-25T03:13:59.945Z,24.5
2022-11-25T03:15:02.434Z,24.4
2022-11-25T03:16:04.720Z,24.6
2022-11-25T03:17:07.656Z,24.5
2022-11-25T03:18:10.148Z,24.6
2022-11-25T03:19:12.628Z,24.7
2022-11-25T03:20:15.158Z,24.4
2022-11-25T03:21:17.368Z,24.4
2022-11-25T03:22:19.564Z,24.6
2022-11-25T03:23:21.779Z,24.2
2022-11-25T03:24:23.974Z,24.4
2022-11-25T03:25:26.230Z,24.6
2022-11-25T03:26:28.707Z,24.1
2022-11-25T03:27:30.637Z,24.5
2022-11-25T03:28:32.563Z,24.7
2022-11-25T03:29:34.747Z,24.6
2022-11-25T03:30:37.235Z,24.3
2022-11-25T03:31:39.742Z,24.7
2022-11-25T03:32:42.596Z,24.5
2022-11-25T03:33:44.798Z,24.4
2022-11-25T03:34:47.278Z,24.4
2022-11-25T03:35:49.842Z,24.7
2022-11-25T03:36:52.071Z,24.6
2022-11-25T03:37:54.396Z,24.5
2022-11-25T03:38:56.879Z,24.7
2022-11-25T03:39:59.356Z,24.5
2022-11-25T03:41:01.605Z,24.7
2022-11-25T03:42:04.086Z,24.5
2022-11-25T03:43:06.291Z,24.6
2022-11-25T03:44:08.765Z,24.5
2022-11-25T03:45:11.243Z,24.5
2022-11-25T03:46:13.552Z,24.6
2022-11-25T03:47:16.329Z,24.4
2022-11-25T03:48:18.574Z,24.3
2022-11-25T03:49:21.061Z,24.4
2022-11-25T03:50:23.260Z,24.5
2022-11-25T03:51:25.528Z,24.3
2022-11-25T03:52:28.015Z,24.6
2022-11-25T03:53:30.221Z,24.4
2022-11-25T03:54:32.420Z,24.7
2022-11-25T03:55:36.025Z,24.6
2022-11-25T03:56:38.551Z,24.4
2022-11-25T03:57:41.037Z,24.4
2022-11-25T03:58:43.570Z,24.5
2022-11-25T03:59:46.073Z,24.6
2022-11-25T04:00:48.547Z,24.6
2022-11-25T04:01:51.205Z,24.5
2022-11-25T04:02:53.737Z,24.3
2022-11-25T04:03:56.673Z,24.6
2022-11-25T04:04:58.700Z,24.8
2022-11-25T04:06:01.337Z,24.6
2022-11-25T04:07:04.138Z,24.6
2022-11-25T04:08:06.443Z,24.6
2022-11-25T04:09:09.261Z,24.4
2022-11-25T04:10:11.465Z,24.6
2022-11-25T04:11:13.951Z,24.4
2022-11-25T04:12:16.481Z,24.4
2022-11-25T04:13:18.953Z,24.7
2022-11-25T04:14:21.170Z,24.4
2022-11-25T04:15:23.632Z,24.6
2022-11-25T04:16:25.867Z,24.4
2022-11-25T04:17:28.644Z,24.5
2022-11-25T04:18:31.125Z,24.3
2022-11-25T04:19:33.327Z,24.2
2022-11-25T04:20:35.809Z,24.2
2022-11-25T04:21:37.452Z,24.4
2022-11-25T04:22:40.280Z,24.5
2022-11-25T04:23:42.748Z,24.3
2022-11-25T04:24:45.243Z,24.5
2022-11-25T04:25:47.740Z,24.3
2022-11-25T04:26:50.219Z,24.5
2022-11-25T04:27:52.744Z,24.3
2022-11-25T04:28:54.950Z,24.2
2022-11-25T04:29:57.426Z,24.3
2022-11-25T04:30:59.951Z,24.1
2022-11-25T04:32:02.814Z,24.4
2022-11-25T04:33:05.301Z,24.1
2022-11-25T04:34:07.554Z,24.2
2022-11-25T04:35:09.462Z,24.3
2022-11-25T04:36:11.658Z,24.3
2022-11-25T04:37:13.854Z,24.4
2022-11-25T04:38:16.398Z,24.3
2022-11-25T04:39:18.869Z,24.2
2022-11-25T04:40:21.070Z,24
2022-11-25T04:41:23.004Z,24.2
2022-11-25T04:42:25.485Z,24.4
2022-11-25T04:43:27.745Z,24.3
2022-11-25T04:44:30.210Z,24.3
2022-11-25T04:45:45.585Z,24.5
2022-11-25T04:46:37.458Z,24.3
2022-11-25T04:47:40.337Z,24.7
2022-11-25T04:48:42.824Z,24.3
2022-11-25T04:49:45.026Z,24.4
2022-11-25T04:50:47.230Z,24.4
2022-11-25T04:51:49.717Z,24.6
2022-11-25T04:52:51.928Z,24
2022-11-25T04:53:54.468Z,24.4
2022-11-25T04:54:56.956Z,24.2
2022-11-25T04:55:59.432Z,23.9
2022-11-25T04:57:01.372Z,24.2
2022-11-25T04:58:03.909Z,24
2022-11-25T04:59:06.163Z,24.2
2022-11-25T05:00:08.056Z,23.9
2022-11-25T05:01:10.621Z,24
2022-11-25T05:02:13.157Z,24
2022-11-25T05:03:15.873Z,24.2
2022-11-25T05:04:18.060Z,24.2
2022-11-25T05:05:20.547Z,24.1
2022-11-25T05:06:22.487Z,24.1
2022-11-25T05:07:25.017Z,24.3
2022-11-25T05:08:27.914Z,24.2
2022-11-25T05:09:30.458Z,24.2
2022-11-25T05:10:32.388Z,24.4
2022-11-25T05:11:34.870Z,24
2022-11-25T05:12:37.080Z,24
2022-11-25T05:13:39.256Z,24.5
2022-11-25T05:14:41.773Z,24.1
2022-11-25T05:15:44.286Z,23.9
2022-11-25T05:16:46.836Z,24.3
2022-11-25T05:17:49.141Z,23.9
2022-11-25T05:18:51.611Z,23.8
2022-11-25T05:19:53.245Z,24.2
2022-11-25T05:20:55.622Z,24.2
2022-11-25T05:21:57.828Z,24
2022-11-25T05:23:00.312Z,23.7
2022-11-25T05:24:02.801Z,23.7
2022-11-25T05:25:05.057Z,23.9
2022-11-25T05:26:07.544Z,24.2
2022-11-25T05:27:10.023Z,23.9
2022-11-25T05:28:12.223Z,24.3
2022-11-25T05:29:14.692Z,24.1
2022-11-25T05:30:17.206Z,24.2
2022-11-25T05:31:19.757Z,24.1
2022-11-25T05:32:22.112Z,24.2
2022-11-25T05:33:24.309Z,24.2
2022-11-25T05:34:26.509Z,24.4
2022-11-25T05:35:28.979Z,23.7
2022-11-25T05:36:31.504Z,24.1
2022-11-25T05:37:34.002Z,24.1
2022-11-25T05:38:36.215Z,24.1
2022-11-25T05:39:38.464Z,24.3
2022-11-25T05:40:41.020Z,24.1
2022-11-25T05:41:43.247Z,23.9
2022-11-25T05:42:45.795Z,23.6
2022-11-25T05:43:48.365Z,24.3
2022-11-25T05:44:50.847Z,24.3
2022-11-25T05:45:53.464Z,24.3
2022-11-25T05:46:56.232Z,24.6
2022-11-25T05:47:58.702Z,24.3
2022-11-25T05:49:01.185Z,23.8
2022-11-25T05:50:03.666Z,23.7
2022-11-25T05:51:05.588Z,24.5
2022-11-25T05:52:08.117Z,24.2
2022-11-25T05:53:10.704Z,23.6
2022-11-25T05:54:12.930Z,23.7
2022-11-25T05:55:15.148Z,23.7
2022-11-25T05:56:17.686Z,24.4
2022-11-25T05:57:20.156Z,24.1
2022-11-25T05:58:22.359Z,23.5
2022-11-25T05:59:24.678Z,23.8
2022-11-25T06:00:27.062Z,24
2022-11-25T06:01:29.615Z,23.6
2022-11-25T06:02:31.892Z,23.6
2022-11-25T06:03:34.794Z,23.4
2022-11-25T06:04:37.948Z,23.5
2022-11-25T06:05:41.014Z,23.9
2022-11-25T06:06:43.228Z,24.4
2022-11-25T06:07:45.518Z,23.7
2022-11-25T06:08:48.242Z,23.8
2022-11-25T06:09:50.454Z,24.2
2022-11-25T06:10:52.394Z,24.3
2022-11-25T06:11:55.037Z,23.8
2022-11-25T06:12:57.521Z,24.2
2022-11-25T06:13:59.724Z,24.4
2022-11-25T06:15:02.209Z,23.7
2022-11-25T06:16:07.606Z,24.4
2022-11-25T06:17:09.706Z,23.7
2022-11-25T06:18:11.635Z,23.8
2022-11-25T06:19:13.832Z,23.9
2022-11-25T06:20:16.037Z,24
2022-11-25T06:21:18.234Z,24.1
2022-11-25T06:22:20.710Z,24
2022-11-25T06:23:23.192Z,23.4
2022-11-25T06:24:25.380Z,24.4
2022-11-25T06:25:27.580Z,23.9
2022-11-25T06:26:29.792Z,23.9
2022-11-25T06:27:50.377Z,23.5
2022-11-25T06:28:37.040Z,23.6
2022-11-25T06:29:39.234Z,23.4
2022-11-25T06:30:41.192Z,23.8
2022-11-25T06:31:43.153Z,24.2
2022-11-25T06:32:45.860Z,24.1
2022-11-25T06:33:48.076Z,23.7
2022-11-25T06:34:50.608Z,23.8
2022-11-25T06:35:52.518Z,24
2022-11-25T06:36:54.717Z,24.4
2022-11-25T06:37:57.185Z,23.8
2022-11-25T06:38:59.669Z,24.4
2022-11-25T06:40:01.868Z,24.2
2022-11-25T06:41:04.345Z,23.7
2022-11-25T06:42:06.519Z,24
2022-11-25T06:43:09.064Z,24.1
2022-11-25T06:44:11.263Z,23.7
2022-11-25T06:45:13.738Z,24
2022-11-25T06:46:19.776Z,23.6
2022-11-25T06:47:21.221Z,24.5
2022-11-25T06:48:23.440Z,23.6
2022-11-25T06:49:25.938Z,24.3
2022-11-25T06:50:27.870Z,24.3
2022-11-25T06:51:30.083Z,24.1
2022-11-25T06:52:32.286Z,23.5
2022-11-25T06:53:34.493Z,23.8
2022-11-25T06:54:36.325Z,23.4
2022-11-25T06:55:39.413Z,23.5
2022-11-25T06:56:41.891Z,24.3
2022-11-25T06:57:43.831Z,23.6
2022-11-25T06:58:46.361Z,24.1
2022-11-25T06:59:48.849Z,24.1
2022-11-25T07:00:51.332Z,24.2
2022-11-25T07:01:53.588Z,24
2022-11-25T07:02:56.202Z,24.5
2022-11-25T07:03:58.694Z,23.5
2022-11-25T07:05:01.210Z,24.2
2022-11-25T07:06:03.510Z,23.6
2022-11-25T07:07:05.704Z,23.5
2022-11-25T07:08:07.909Z,23.9
2022-11-25T07:09:10.392Z,24
2022-11-25T07:10:12.871Z,24.1
2022-11-25T07:11:15.075Z,23.8
2022-11-25T07:12:17.560Z,23.6
2022-11-25T07:13:19.742Z,23.9
2022-11-25T07:14:22.284Z,23.8
2022-11-25T07:15:24.488Z,23.6
2022-11-25T07:16:27.063Z,24.4
2022-11-25T07:17:29.749Z,23.9
2022-11-25T07:18:32.233Z,23.4
2022-11-25T07:19:34.470Z,23.9
2022-11-25T07:20:36.425Z,24.2
2022-11-25T07:21:38.640Z,24.1
2022-11-25T07:22:41.122Z,24.3
2022-11-25T07:23:43.300Z,24.2
2022-11-25T07:24:45.950Z,23.4
2022-11-25T07:25:48.143Z,23.6
2022-11-25T07:26:50.371Z,24.4
2022-11-25T07:27:52.576Z,23.5
2022-11-25T07:28:54.784Z,23.6
2022-11-25T07:30:29.452Z,23.5
2022-11-25T07:32:10.665Z,23.8
2022-11-25T07:33:12.433Z,23.6
2022-11-25T07:34:14.932Z,23.6
2022-11-25T07:35:17.167Z,24
2022-11-25T07:36:19.100Z,23.9
2022-11-25T07:37:21.592Z,23.9
2022-11-25T07:38:24.081Z,24.1
2022-11-25T07:39:26.565Z,23.9
2022-11-25T07:40:29.049Z,24
2022-11-25T07:41:31.525Z,24.1
2022-11-25T07:42:33.707Z,24.1
2022-11-25T07:43:36.184Z,23.3
2022-11-25T07:44:38.664Z,23.7
2022-11-25T07:45:41.217Z,24
2022-11-25T07:46:43.772Z,23.6
2022-11-25T07:47:46.330Z,24.3
2022-11-25T07:48:48.239Z,23.4
2022-11-25T07:49:50.484Z,23.7
2022-11-25T07:50:52.984Z,24.1
2022-11-25T07:51:55.212Z,23.8
2022-11-25T07:52:57.419Z,23.7
2022-11-25T07:53:59.903Z,23.9
2022-11-25T07:55:02.098Z,24.2
2022-11-25T07:56:04.585Z,23.7
2022-11-25T07:57:06.512Z,23.6
2022-11-25T07:58:08.997Z,23.8
2022-11-25T07:59:11.475Z,23.8
2022-11-25T08:00:13.682Z,24.1
2022-11-25T08:01:16.016Z,24.3
2022-11-25T08:02:18.630Z,24.1
2022-11-25T08:03:21.079Z,24
2022-11-25T08:04:23.698Z,23.8
2022-11-25T08:05:26.176Z,24.1
2022-11-25T08:06:28.397Z,24
2022-11-25T08:07:36.247Z,23.2
2022-11-25T08:08:35.889Z,23.8
2022-11-25T08:09:38.202Z,24
2022-11-25T08:10:41.272Z,24
2022-11-25T08:11:43.505Z,23.7
2022-11-25T08:12:45.746Z,23.6
2022-11-25T08:13:48.234Z,24
2022-11-25T08:14:50.191Z,23.6
2022-11-25T08:15:52.738Z,23.9
2022-11-25T08:16:55.079Z,23.7
2022-11-25T08:17:57.310Z,23.7
2022-11-25T08:18:59.836Z,24
2022-11-25T08:20:02.313Z,24
2022-11-25T08:21:04.526Z,24
2022-11-25T08:22:07.040Z,23.9
2022-11-25T08:23:09.568Z,24
2022-11-25T08:24:11.485Z,24
2022-11-25T08:25:13.975Z,23.8
2022-11-25T08:26:16.193Z,23.8
2022-11-25T08:27:18.121Z,24
2022-11-25T08:28:20.302Z,23.4
2022-11-25T08:29:22.238Z,24
2022-11-25T08:30:24.225Z,24
2022-11-25T08:31:26.753Z,24.1
2022-11-25T08:32:29.496Z,24.1
2022-11-25T08:33:32.014Z,23.6
2022-11-25T08:34:34.243Z,23.8
2022-11-25T08:35:36.768Z,23.6
2022-11-25T08:36:41.468Z,23.5
2022-11-25T08:37:44.018Z,23.6
2022-11-25T08:38:46.581Z,23.8
2022-11-25T08:39:53.408Z,23.9
2022-11-25T08:40:53.773Z,23.8
2022-11-25T08:41:56.001Z,23.6
2022-11-25T08:42:58.505Z,23.6
2022-11-25T08:44:00.707Z,23.7
2022-11-25T08:45:02.927Z,23.6
2022-11-25T08:46:05.216Z,23.5
2022-11-25T08:47:08.013Z,24.1
2022-11-25T08:48:10.296Z,23.9
2022-11-25T08:49:12.530Z,23.5
2022-11-25T08:50:15.023Z,23.7
2022-11-25T08:51:17.236Z,23.8
2022-11-25T08:52:18.875Z,24
2022-11-25T08:53:21.125Z,23.6
2022-11-25T08:54:23.321Z,24.2
2022-11-25T08:55:25.828Z,23.7
2022-11-25T08:56:28.311Z,24.3
2022-11-25T08:57:30.257Z,24
2022-11-25T08:58:32.740Z,23.7
2022-11-25T08:59:35.488Z,23.6
2022-11-25T09:00:39.498Z,23.9
2022-11-25T09:01:42.087Z,23.9
2022-11-25T09:02:45.097Z,23.5
2022-11-25T09:03:47.903Z,23.9
2022-11-25T09:04:50.427Z,23.8
2022-11-25T09:05:52.921Z,23.6
2022-11-25T09:06:55.137Z,23.8
2022-11-25T09:07:57.647Z,23.7
2022-11-25T09:09:00.170Z,23.9
2022-11-25T09:10:02.918Z,23.5
2022-11-25T09:11:04.669Z,24.1
2022-11-25T09:12:07.185Z,23.9
2022-11-25T09:13:09.460Z,23.8
2022-11-25T09:14:11.721Z,23.9
2022-11-25T09:15:14.111Z,23.9
2022-11-25T09:16:16.703Z,24.3
2022-11-25T09:17:19.490Z,23.9
2022-11-25T09:18:21.432Z,23.9
2022-11-25T09:19:24.022Z,23.9
2022-11-25T09:20:26.551Z,23.9
2022-11-25T09:21:28.742Z,24
2022-11-25T09:22:30.957Z,23.6
2022-11-25T09:23:33.449Z,23.6
2022-11-25T09:24:35.380Z,23.9
2022-11-25T09:25:37.677Z,23.6
2022-11-25T09:26:39.909Z,23.9
2022-11-25T09:27:42.176Z,24
2022-11-25T09:28:44.136Z,23.7
2022-11-25T09:29:46.149Z,23.7
2022-11-25T09:30:48.406Z,23.5
2022-11-25T09:31:54.615Z,24
2022-11-25T09:32:56.288Z,23.4
2022-11-25T09:33:58.800Z,23.9
2022-11-25T09:35:01.355Z,24
2022-11-25T09:36:03.592Z,23.8
2022-11-25T09:37:05.594Z,23.9
2022-11-25T09:38:08.164Z,23.7
2022-11-25T09:39:10.925Z,23.7
2022-11-25T09:40:13.446Z,23.5
2022-11-25T09:41:15.736Z,23.5
2022-11-25T09:42:17.975Z,23.6
2022-11-25T09:43:20.510Z,23.4
2022-11-25T09:44:22.996Z,23.7
2022-11-25T09:45:25.219Z,24.2
2022-11-25T09:46:27.157Z,23.7
2022-11-25T09:47:29.742Z,24
2022-11-25T09:48:31.943Z,23.7
2022-11-25T09:49:34.309Z,24
2022-11-25T09:50:38.770Z,23.8
2022-11-25T09:51:41.257Z,23.8
2022-11-25T09:52:43.733Z,24
2022-11-25T09:53:46.260Z,23.7
2022-11-25T09:54:48.462Z,23.7
2022-11-25T09:55:50.996Z,23.8
2022-11-25T09:56:56.996Z,24
2022-11-25T09:57:59.958Z,24
2022-11-25T09:59:02.292Z,23.9
2022-11-25T10:00:04.231Z,23.8
2022-11-25T10:01:06.448Z,23.3
2022-11-25T10:02:08.144Z,23.7
2022-11-25T10:03:11.096Z,23.9
2022-11-25T10:04:13.905Z,23.6
2022-11-25T10:05:16.388Z,23.7
2022-11-25T10:06:19.057Z,23.2
2022-11-25T10:07:21.618Z,23.7
2022-11-25T10:08:23.814Z,23.7
2022-11-25T10:09:25.769Z,23.8
2022-11-25T10:10:28.245Z,23.5
2022-11-25T10:11:30.491Z,24
2022-11-25T10:12:32.990Z,23.6
2022-11-25T10:13:35.212Z,23.7
2022-11-25T10:14:37.714Z,23.5
2022-11-25T10:15:40.314Z,23.7
2022-11-25T10:16:45.995Z,23.5
2022-11-25T10:17:48.086Z,23.6
2022-11-25T10:18:50.571Z,23.8
2022-11-25T10:19:51.939Z,23.6
2022-11-25T10:20:54.427Z,23.4
2022-11-25T10:21:57.000Z,23.8
2022-11-25T10:22:59.211Z,23.8
2022-11-25T10:24:01.429Z,24.1
2022-11-25T10:25:03.644Z,23.6
2022-11-25T10:26:06.178Z,23.9
2022-11-25T10:27:08.425Z,23.9
2022-11-25T10:28:10.953Z,23.6
2022-11-25T10:29:13.169Z,23.8
2022-11-25T10:30:15.647Z,23.7
2022-11-25T10:31:18.283Z,23.5
2022-11-25T10:32:20.741Z,23.7
2022-11-25T10:33:22.945Z,23.8
2022-11-25T10:34:24.890Z,23.6
2022-11-25T10:35:26.829Z,23.8
2022-11-25T10:36:29.045Z,23.7
2022-11-25T10:37:31.370Z,23.4
2022-11-25T10:38:33.610Z,23.6
2022-11-25T10:39:35.551Z,24
2022-11-25T10:40:38.062Z,23.9
2022-11-25T10:41:40.269Z,23.5
2022-11-25T10:42:42.520Z,23.7
2022-11-25T10:43:44.482Z,23.7
2022-11-25T10:44:46.719Z,23.7
2022-11-25T10:45:48.646Z,23.6
2022-11-25T10:47:12.673Z,23.7
2022-11-25T10:47:55.929Z,23.8
2022-11-25T10:48:58.458Z,23.5
2022-11-25T10:50:00.950Z,24
2022-11-25T10:51:03.233Z,23.9
2022-11-25T10:52:05.732Z,23.6
2022-11-25T10:53:08.105Z,23.6
2022-11-25T10:54:10.599Z,23.8
2022-11-25T10:55:12.817Z,23.7
2022-11-25T10:56:14.758Z,23.7
2022-11-25T10:57:16.948Z,23.9
2022-11-25T10:58:19.474Z,23.7
2022-11-25T10:59:21.966Z,23.8
2022-11-25T11:00:24.168Z,23.8
2022-11-25T11:01:26.676Z,23.4
2022-11-25T11:02:29.519Z,23.3
2022-11-25T11:03:32.351Z,23.6
2022-11-25T11:04:34.279Z,23.6
2022-11-25T11:05:41.284Z,23.8
2022-11-25T11:06:43.371Z,23.8
2022-11-25T11:07:45.965Z,23.5
2022-11-25T11:08:48.908Z,23.8
2022-11-25T11:09:50.566Z,23.4
2022-11-25T11:10:57.127Z,23.5
2022-11-25T11:11:57.762Z,23.7
2022-11-25T11:12:59.668Z,23.5
2022-11-25T11:14:02.233Z,23.8
2022-11-25T11:15:04.733Z,23.5
2022-11-25T11:16:07.015Z,23.6
2022-11-25T11:17:09.445Z,23.2
2022-11-25T11:18:11.655Z,23.6
2022-11-25T11:19:13.868Z,23.9
2022-11-25T11:20:16.197Z,23.4
2022-11-25T11:21:18.740Z,23.7
2022-11-25T11:22:20.938Z,23.5
2022-11-25T11:23:23.134Z,23.8
2022-11-25T11:24:25.685Z,23.8
2022-11-25T11:25:27.885Z,23.5
2022-11-25T11:26:30.095Z,23.6
2022-11-25T11:27:32.576Z,23.6
2022-11-25T11:28:34.809Z,23.8
2022-11-25T11:29:37.335Z,23.8
2022-11-25T11:30:39.574Z,23.6
2022-11-25T11:31:42.154Z,23.7
2022-11-25T11:32:45.023Z,23.4
2022-11-25T11:33:47.218Z,23.7
2022-11-25T11:34:49.738Z,23.3
2022-11-25T11:35:52.216Z,23.7
2022-11-25T11:36:54.693Z,23.7
2022-11-25T11:37:56.894Z,23.6
2022-11-25T11:38:59.079Z,23.9
2022-11-25T11:40:01.637Z,23.5
2022-11-25T11:41:03.554Z,23.8
2022-11-25T11:42:05.743Z,23.7
2022-11-25T11:43:08.227Z,23.8
2022-11-25T11:44:10.749Z,23.5
2022-11-25T11:45:13.048Z,23.5
2022-11-25T11:46:15.624Z,23.3
2022-11-25T11:47:17.826Z,24
2022-11-25T11:48:20.035Z,23.8
2022-11-25T11:49:26.313Z,23.7
2022-11-25T11:50:27.519Z,23.7
2022-11-25T11:51:29.999Z,23.7
2022-11-25T11:52:32.855Z,23.4
2022-11-25T11:53:34.783Z,23.7
2022-11-25T11:54:37.495Z,23.8
2022-11-25T11:55:40.929Z,23.7
2022-11-25T11:56:43.131Z,24.1
2022-11-25T11:57:45.337Z,23.6
2022-11-25T11:58:47.819Z,23.6
2022-11-25T11:59:50.029Z,24
2022-11-25T12:00:52.290Z,24
2022-11-25T12:01:54.570Z,23.7
2022-11-25T12:02:57.298Z,23.9
2022-11-25T12:03:59.989Z,23.8
2022-11-25T12:05:02.500Z,23.7
2022-11-25T12:06:04.721Z,23.7
2022-11-25T12:07:06.410Z,24
2022-11-25T12:08:09.399Z,23.3
2022-11-25T12:09:11.891Z,23.7
2022-11-25T12:10:13.815Z,24.1
2022-11-25T12:11:16.368Z,23.3
2022-11-25T12:12:18.590Z,23.7
2022-11-25T12:13:21.092Z,23.6
2022-11-25T12:14:23.588Z,24
2022-11-25T12:15:26.068Z,23.4
2022-11-25T12:16:28.701Z,23.5
2022-11-25T12:17:31.659Z,23.7
2022-11-25T12:18:34.168Z,23.7
2022-11-25T12:19:36.643Z,23.8
2022-11-25T12:20:38.851Z,23.4
2022-11-25T12:21:42.185Z,24.1
2022-11-25T12:22:44.596Z,23.7
2022-11-25T12:23:46.820Z,24.1
2022-11-25T12:24:49.031Z,23.6
2022-11-25T12:25:51.259Z,23.7
2022-11-25T12:26:53.795Z,24
2022-11-25T12:27:55.998Z,23.9
2022-11-25T12:28:58.215Z,23.8
2022-11-25T12:30:00.431Z,23.4
2022-11-25T12:31:05.080Z,23.5
2022-11-25T12:32:07.674Z,23.6
2022-11-25T12:33:10.364Z,23.8
2022-11-25T12:34:12.881Z,23.4
2022-11-25T12:35:15.413Z,23.9
2022-11-25T12:36:17.911Z,23.9
2022-11-25T12:37:19.867Z,24.1
2022-11-25T12:38:22.345Z,23.6
2022-11-25T12:39:24.831Z,23.8
2022-11-25T12:40:27.103Z,24
2022-11-25T12:41:29.130Z,23.6
2022-11-25T12:42:31.697Z,23.6
2022-11-25T12:43:34.182Z,23.8
2022-11-25T12:44:36.713Z,23.6
2022-11-25T12:45:40.279Z,23.7
2022-11-25T12:46:42.625Z,23.6
2022-11-25T12:47:45.266Z,23.7
2022-11-25T12:48:48.162Z,23.5
2022-11-25T12:49:50.368Z,23.3
2022-11-25T12:50:52.584Z,23.7
2022-11-25T12:51:54.788Z,23.7
2022-11-25T12:52:57.273Z,23.4
2022-11-25T12:53:59.752Z,23.7
2022-11-25T12:55:01.976Z,23.6
2022-11-25T12:56:04.468Z,23.7
2022-11-25T12:57:06.412Z,23.6
2022-11-25T12:58:09.002Z,23.7
2022-11-25T12:59:11.340Z,23.6
2022-11-25T13:01:19.027Z,23.5
2022-11-25T13:02:21.945Z,23.6
2022-11-25T13:03:24.816Z,23.7
2022-11-25T13:04:27.332Z,23.5
2022-11-25T13:05:44.187Z,23.4
2022-11-25T13:06:34.521Z,23.6
2022-11-25T13:07:37.012Z,23.5
2022-11-25T13:08:39.542Z,23.5
2022-11-25T13:09:41.478Z,23.7
2022-11-25T13:10:43.963Z,23.7
2022-11-25T13:11:46.736Z,23.6
2022-11-25T13:12:52.018Z,23.5
2022-11-25T13:13:57.041Z,23.9
2022-11-25T13:15:02.116Z,23.6
2022-11-25T13:16:07.526Z,23.8
2022-11-25T13:17:13.237Z,23.9
2022-11-25T13:18:18.651Z,23.4
2022-11-25T13:19:21.038Z,23.6
2022-11-25T13:20:23.265Z,23.5
2022-11-25T13:21:25.759Z,23.8
2022-11-25T13:22:27.723Z,23.7
2022-11-25T13:23:30.234Z,23.7
2022-11-25T13:24:32.191Z,24
2022-11-25T13:25:35.228Z,24.1
2022-11-25T13:26:37.780Z,23.5
2022-11-25T13:27:40.338Z,24
2022-11-25T13:28:42.701Z,23.8
2022-11-25T13:29:45.281Z,23.6
2022-11-25T13:30:47.763Z,23.9
2022-11-25T13:31:53.482Z,24.1
2022-11-25T13:32:55.226Z,23.6
2022-11-25T13:33:57.431Z,23.6
2022-11-25T13:34:59.972Z,23.4
2022-11-25T13:36:02.183Z,23.9
2022-11-25T13:37:04.688Z,23.7
2022-11-25T13:38:07.182Z,23.8
2022-11-25T13:39:09.674Z,23.9
2022-11-25T13:40:12.210Z,23.8
2022-11-25T13:41:14.432Z,23.5
2022-11-25T13:42:16.753Z,23.4
2022-11-25T13:43:19.117Z,23.7
2022-11-25T13:44:21.300Z,23.6
2022-11-25T13:45:23.906Z,23.8
2022-11-25T13:46:26.356Z,23.6
2022-11-25T13:47:28.599Z,24.2
2022-11-25T13:48:31.590Z,23.3
2022-11-25T13:49:34.088Z,23.7
2022-11-25T13:51:03.224Z,23.9
2022-11-25T13:51:41.573Z,23.7
2022-11-25T13:52:43.814Z,23.9
2022-11-25T13:53:46.367Z,23.4
2022-11-25T13:54:48.619Z,23.6
2022-11-25T13:55:51.133Z,24
2022-11-25T13:56:53.621Z,23.9
2022-11-25T13:57:55.534Z,23.9